Terminal Aerodrome Forecast
Issued by NWS

Home | Current Version | Previous Version | Text Only | Print | Product List | Glossary On
Versions: 1 2 3 4 5 6 7 8 9 10 11 12
000
FTUS45 KGJT 141720
TAFRIL
TAF
KRIL 141720Z 1418/1518 33010KT P6SM SCT120
     FM150100 28004KT P6SM FEW120 FEW250
     FM150900 VRB03KT P6SM SKC=

USA.gov is the U.S. government's official web portal to all federal, state and local government web resources and services.